• Join FlightAware (Why Join?)
  • Login
  • US Flag 
04:31PM EDT


 

Airport Tracker/Info


-or-


 

Live Flight TrackerFlight Track Log ✈ N779NC ✈ 07-Jul-2013 ✈ KBNA - KATL

Flight Track Log - Related Links

Times and Time Zones

All times are in EDT time to prevent confusion due to time zone crossing. See the N779NC flight status page for this flight to view local times or setup timezone preferences in your user account.

Time Position Orientation Groundspeed Altitude Reporting Facility
EDT Latitude Longitude Course Direction KTS MPH feet Rate Location/Type
08:42AM 36.0375 -86.5965 149° Southeast  Level Estimated
08:43AM 35.9940 -86.5557 149° Southeast  Level Estimated
08:44AM 35.9435 -86.5302 158° South  Level FlightAware Approximate
08:45AM 35.9001 -86.4893 145° Southeast  Level Estimated
08:46AM 35.8537 -86.4538 148° Southeast  Level FlightAware Approximate
08:47AM 35.8073 -86.4183 148° Southeast  Level FlightAware Approximate
08:48AM 35.7640 -86.3773 152° Southeast  Level Estimated
08:49AM 35.7207 -86.3363 136° Southeast  Level Estimated
08:50AM 35.6781 -86.2943 141° Southeast  Level FlightAware Approximate
08:51AM 35.6348 -86.2534 136° Southeast  Level Estimated
08:52AM 35.5928 -86.2105 140° Southeast  Level FlightAware Approximate
08:53AM 35.5454 -86.1620 141° Southeast  Level FlightAware Approximate
08:54AM 35.5030 -86.1197 141° Southeast  Level FlightAware Approximate
08:55AM 35.4602 -86.0782 147° Southeast  Level FlightAware Approximate
08:56AM 35.4145 -86.0416 147° Southeast  Level FlightAware Approximate
08:57AM 35.3680 -86.0065 151° Southeast  Level FlightAware Approximate
08:58AM 35.3201 -85.9745 151° Southeast  Level FlightAware Approximate
08:59AM 35.2735 -85.9401 141° Southeast  Level FlightAware Approximate
09:00AM 35.2309 -85.8984 151° Southeast  Level FlightAware Approximate
09:01AM 35.1830 -85.8663 151° Southeast  Level FlightAware Approximate
09:02AM 35.1350 -85.8344 151° Southeast  Level FlightAware Approximate
09:03AM 35.0871 -85.8024 151° Southeast  Level FlightAware Approximate
09:04AM 35.0392 -85.7705 151° Southeast  Level FlightAware Approximate
09:05AM 34.9962 -85.7296 141° Southeast  Level FlightAware Approximate
09:06AM 34.9514 -85.6918 147° Southeast  Level FlightAware Approximate
09:07AM 34.9054 -85.6560 147° Southeast  Level FlightAware Approximate
09:08AM 34.8593 -85.6202 147° Southeast  Level FlightAware Approximate
09:09AM 34.8127 -85.5856 150° Southeast  Level FlightAware Approximate
09:09AM 36.1167 -86.6833 150° Southeast 144 166 1,500  Level Nashville TRACON
09:10AM 34.7653 -85.5527 150° Southeast  Level FlightAware Approximate
09:10AM 36.0333 -86.6833 180° South 236 272 3,300  Level Nashville TRACON
09:11AM 34.6948 -85.5037 150° Southeast  Level FlightAware Approximate
09:12AM 34.6243 -85.4548 150° Southeast  Level FlightAware Approximate
09:12AM 35.9028 -86.6464 167° South 292 336 7,300  Level Memphis Center
09:13AM 34.5537 -85.4060 150° Southeast  Level FlightAware Approximate
09:13AM 35.8308 -86.6111 158° South 287 330 9,800  Level Memphis Center
09:14AM 34.4831 -85.3573 150° Southeast  Level FlightAware Approximate
09:14AM 35.7483 -86.5714 159° South 303 349 11,200  Level Memphis Center
09:15AM 35.6669 -86.4983 144° Southeast 324 373 13,500 1,860 Climbing Memphis Center
09:16AM 35.5872 -86.4206 142° Southeast 351 404 15,000 1,680 Climbing Memphis Center
09:17AM 35.5053 -86.3378 141° Southeast 362 417 16,900 1,500 Climbing Memphis Center
09:19AM 35.4128 -86.2431 140° Southeast 396 456 18,500 1,260 Climbing Atlanta Center
09:20AM 35.3225 -86.1542 141° Southeast 401 461 19,800 1,260 Climbing Atlanta Center
09:21AM 35.2256 -86.0856 150° Southeast 407 468 21,100 1,320 Climbing Atlanta Center
09:22AM 35.1222 -86.0244 154° Southeast 407 468 22,500 1,260 Climbing Atlanta Center
09:23AM 35.0211 -85.9639 154° Southeast 407 468 23,700 1,140 Climbing Atlanta Center
09:24AM 34.9053 -85.8878 152° Southeast 418 481 24,800 600 Climbing Atlanta Center
09:25AM 34.8039 -85.8222 152° Southeast 436 502 25,000 60 Climbing Atlanta Center
09:26AM 34.7011 -85.7214 141° Southeast 462 532 25,000  Level Atlanta Center
09:27AM 34.6025 -85.6108 137° Southeast 475 547 25,000 -1,380 Level Atlanta Center
09:28AM 34.5161 -85.4958 132° Southeast 470 541 22,300 -2,760 Descending Atlanta Center
09:29AM 34.4339 -85.3911 134° Southeast 445 512 19,500 -2,700 Descending Atlanta Center
09:30AM 34.3472 -85.3017 140° Southeast 419 482 17,000 -2,700 Descending Atlanta Center
09:31AM 34.2603 -85.2225 143° Southeast 392 451 14,100 -1,980 Descending Atlanta Center
09:32AM 34.1817 -85.1436 140° Southeast 370 426 13,100 -600 Descending Atlanta Center
09:33AM 34.1156 -85.0575 133° Southeast 333 383 13,000 -300 Descending Atlanta Center
09:34AM 34.0642 -84.9767 127° Southeast 307 353 12,500 -1,320 Descending Atlanta Center
09:35AM 33.9333 -84.9167 159° South 275 316 9,300 -1,260 Descending Atlanta TRACON
09:36AM 33.8500 -84.9167 180° South 280 322 9,000 -240 Descending Atlanta TRACON
09:37AM 33.7833 -84.9167 180° South 274 315 8,900 -780 Descending Atlanta TRACON
09:38AM 33.7000 -84.9167 180° South 276 318 7,500 -1,140 Descending Atlanta TRACON
09:39AM 33.6500 -84.8667 140° Southeast 250 288 6,700 -840 Descending Atlanta TRACON
09:40AM 33.6333 -84.8000 107° East 237 273 6,000 -720 Descending Atlanta TRACON
09:41AM 33.6333 -84.7333 90° East 214 246 5,400 -840 Descending Atlanta TRACON
09:42AM 33.6333 -84.6667 90° East 203 234 4,400 -1,020 Descending Atlanta TRACON